sensor_id;sensor_type;location;lat;lon;timestamp;P1;durP1;ratioP1;P2;durP2;ratioP2
22336;SDS011;14992;50.844;4.418;2024-01-15T00:35:25;15.43;;;5.43;;
22336;SDS011;14992;50.844;4.418;2024-01-15T00:37:54;16.42;;;7.13;;
22336;SDS011;14992;50.844;4.418;2024-01-15T00:40:23;16.98;;;6.60;;
22336;SDS011;14992;50.844;4.418;2024-01-15T00:42:52;12.43;;;6.57;;
22336;SDS011;14992;50.844;4.418;2024-01-15T00:45:21;15.18;;;6.50;;
22336;SDS011;14992;50.844;4.418;2024-01-15T00:47:50;19.42;;;6.20;;
22336;SDS011;14992;50.844;4.418;2024-01-15T00:50:20;12.07;;;6.25;;
22336;SDS011;14992;50.844;4.418;2024-01-15T00:52:50;15.85;;;6.85;;
22336;SDS011;14992;50.844;4.418;2024-01-15T00:55:19;13.27;;;7.05;;
22336;SDS011;14992;50.844;4.418;2024-01-15T00:57:48;17.85;;;6.82;;
22336;SDS011;14992;50.844;4.418;2024-01-15T01:00:17;13.85;;;6.10;;
22336;SDS011;14992;50.844;4.418;2024-01-15T01:02:46;10.48;;;4.82;;
22336;SDS011;14992;50.844;4.418;2024-01-15T01:05:15;12.70;;;6.10;;
22336;SDS011;14992;50.844;4.418;2024-01-15T01:07:43;12.73;;;5.57;;
22336;SDS011;14992;50.844;4.418;2024-01-15T01:10:13;8.30;;;4.15;;
22336;SDS011;14992;50.844;4.418;2024-01-15T01:12:42;12.20;;;6.22;;
22336;SDS011;14992;50.844;4.418;2024-01-15T01:15:11;10.38;;;6.18;;
22336;SDS011;14992;50.844;4.418;2024-01-15T01:17:40;6.05;;;4.80;;
22336;SDS011;14992;50.844;4.418;2024-01-15T01:20:09;4.97;;;3.85;;
22336;SDS011;14992;50.844;4.418;2024-01-15T01:22:41;9.70;;;5.10;;
22336;SDS011;14992;50.844;4.418;2024-01-15T01:25:10;8.80;;;4.90;;
22336;SDS011;14992;50.844;4.418;2024-01-15T01:27:41;9.90;;;4.80;;
22336;SDS011;14992;50.844;4.418;2024-01-15T01:30:10;10.95;;;4.78;;
22336;SDS011;14992;50.844;4.418;2024-01-15T01:32:39;7.82;;;4.07;;
22336;SDS011;14992;50.844;4.418;2024-01-15T01:35:08;7.55;;;4.88;;
22336;SDS011;14992;50.844;4.418;2024-01-15T01:37:37;8.93;;;4.63;;
22336;SDS011;14992;50.844;4.418;2024-01-15T01:40:06;5.60;;;3.97;;
22336;SDS011;14992;50.844;4.418;2024-01-15T01:42:35;11.35;;;5.32;;
22336;SDS011;14992;50.844;4.418;2024-01-15T01:45:06;7.45;;;4.63;;
22336;SDS011;14992;50.844;4.418;2024-01-15T01:47:36;8.15;;;5.00;;
22336;SDS011;14992;50.844;4.418;2024-01-15T01:50:05;9.10;;;4.60;;
22336;SDS011;14992;50.844;4.418;2024-01-15T01:52:35;7.47;;;4.05;;
22336;SDS011;14992;50.844;4.418;2024-01-15T01:55:04;8.88;;;4.13;;
22336;SDS011;14992;50.844;4.418;2024-01-15T01:57:35;6.72;;;4.88;;
22336;SDS011;14992;50.844;4.418;2024-01-15T02:00:06;5.82;;;3.88;;
22336;SDS011;14992;50.844;4.418;2024-01-15T02:02:39;5.47;;;3.22;;
22336;SDS011;14992;50.844;4.418;2024-01-15T02:05:08;5.53;;;3.22;;
22336;SDS011;14992;50.844;4.418;2024-01-15T02:07:37;9.50;;;3.33;;
22336;SDS011;14992;50.844;4.418;2024-01-15T02:10:06;10.55;;;4.30;;
22336;SDS011;14992;50.844;4.418;2024-01-15T02:12:35;7.43;;;3.85;;
22336;SDS011;14992;50.844;4.418;2024-01-15T02:15:06;4.90;;;3.75;;
22336;SDS011;14992;50.844;4.418;2024-01-15T02:17:35;7.80;;;3.85;;
22336;SDS011;14992;50.844;4.418;2024-01-15T02:20:25;8.48;;;4.05;;
22336;SDS011;14992;50.844;4.418;2024-01-15T02:22:53;4.85;;;3.53;;
22336;SDS011;14992;50.844;4.418;2024-01-15T02:25:24;9.00;;;3.60;;
22336;SDS011;14992;50.844;4.418;2024-01-15T02:27:52;5.80;;;3.30;;
22336;SDS011;14992;50.844;4.418;2024-01-15T02:30:21;5.88;;;3.50;;
22336;SDS011;14992;50.844;4.418;2024-01-15T02:32:52;4.72;;;3.05;;
22336;SDS011;14992;50.844;4.418;2024-01-15T02:35:21;4.95;;;3.15;;
22336;SDS011;14992;50.844;4.418;2024-01-15T02:37:50;6.10;;;3.97;;
22336;SDS011;14992;50.844;4.418;2024-01-15T02:40:19;4.78;;;2.33;;
22336;SDS011;14992;50.844;4.418;2024-01-15T02:42:49;4.50;;;3.05;;
22336;SDS011;14992;50.844;4.418;2024-01-15T02:45:19;5.22;;;2.83;;
22336;SDS011;14992;50.844;4.418;2024-01-15T02:47:48;5.40;;;3.72;;
22336;SDS011;14992;50.844;4.418;2024-01-15T02:50:17;5.20;;;4.28;;
22336;SDS011;14992;50.844;4.418;2024-01-15T02:52:46;5.07;;;3.45;;
22336;SDS011;14992;50.844;4.418;2024-01-15T02:55:15;4.88;;;3.05;;
22336;SDS011;14992;50.844;4.418;2024-01-15T02:57:43;8.55;;;3.38;;
22336;SDS011;14992;50.844;4.418;2024-01-15T03:00:14;6.85;;;4.20;;
22336;SDS011;14992;50.844;4.418;2024-01-15T03:02:44;9.23;;;5.45;;
22336;SDS011;14992;50.844;4.418;2024-01-15T03:05:14;14.55;;;6.68;;
22336;SDS011;14992;50.844;4.418;2024-01-15T03:07:43;15.68;;;6.35;;
22336;SDS011;14992;50.844;4.418;2024-01-15T03:10:12;9.35;;;5.15;;
22336;SDS011;14992;50.844;4.418;2024-01-15T03:12:41;12.30;;;5.35;;
22336;SDS011;14992;50.844;4.418;2024-01-15T03:15:10;8.38;;;4.82;;
22336;SDS011;14992;50.844;4.418;2024-01-15T03:17:42;10.00;;;5.45;;
22336;SDS011;14992;50.844;4.418;2024-01-15T03:20:11;10.32;;;5.78;;
22336;SDS011;14992;50.844;4.418;2024-01-15T03:22:40;15.10;;;5.63;;
22336;SDS011;14992;50.844;4.418;2024-01-15T03:25:08;9.23;;;5.10;;
22336;SDS011;14992;50.844;4.418;2024-01-15T03:27:37;10.27;;;5.47;;
22336;SDS011;14992;50.844;4.418;2024-01-15T03:30:07;11.90;;;6.40;;
22336;SDS011;14992;50.844;4.418;2024-01-15T03:32:36;12.70;;;5.97;;
22336;SDS011;14992;50.844;4.418;2024-01-15T03:35:07;12.20;;;6.65;;
22336;SDS011;14992;50.844;4.418;2024-01-15T03:37:36;16.95;;;6.93;;
22336;SDS011;14992;50.844;4.418;2024-01-15T03:40:05;13.05;;;6.95;;
22336;SDS011;14992;50.844;4.418;2024-01-15T03:42:35;12.23;;;5.72;;
22336;SDS011;14992;50.844;4.418;2024-01-15T03:45:04;8.02;;;4.30;;
22336;SDS011;14992;50.844;4.418;2024-01-15T03:47:33;13.02;;;6.68;;
22336;SDS011;14992;50.844;4.418;2024-01-15T03:50:02;14.05;;;7.50;;
22336;SDS011;14992;50.844;4.418;2024-01-15T03:52:32;11.93;;;6.50;;
22336;SDS011;14992;50.844;4.418;2024-01-15T03:55:03;13.30;;;7.65;;
22336;SDS011;14992;50.844;4.418;2024-01-15T03:57:32;15.18;;;7.47;;
22336;SDS011;14992;50.844;4.418;2024-01-15T04:00:01;14.02;;;6.82;;
22336;SDS011;14992;50.844;4.418;2024-01-15T04:02:31;12.07;;;6.60;;
22336;SDS011;14992;50.844;4.418;2024-01-15T04:05:00;17.92;;;7.28;;
22336;SDS011;14992;50.844;4.418;2024-01-15T04:07:29;14.00;;;7.68;;
22336;SDS011;14992;50.844;4.418;2024-01-15T04:09:59;15.98;;;8.07;;
22336;SDS011;14992;50.844;4.418;2024-01-15T04:12:28;16.30;;;7.50;;
22336;SDS011;14992;50.844;4.418;2024-01-15T04:14:57;16.15;;;7.65;;
22336;SDS011;14992;50.844;4.418;2024-01-15T04:17:26;15.90;;;6.97;;
22336;SDS011;14992;50.844;4.418;2024-01-15T04:19:55;15.43;;;8.05;;
22336;SDS011;14992;50.844;4.418;2024-01-15T04:22:24;18.63;;;8.38;;
22336;SDS011;14992;50.844;4.418;2024-01-15T04:24:53;17.80;;;9.27;;
22336;SDS011;14992;50.844;4.418;2024-01-15T04:27:23;10.95;;;5.50;;
22336;SDS011;14992;50.844;4.418;2024-01-15T04:29:52;12.15;;;7.50;;
22336;SDS011;14992;50.844;4.418;2024-01-15T04:32:21;18.45;;;9.27;;
22336;SDS011;14992;50.844;4.418;2024-01-15T04:34:50;16.77;;;8.38;;
22336;SDS011;14992;50.844;4.418;2024-01-15T04:37:19;16.40;;;7.32;;
22336;SDS011;14992;50.844;4.418;2024-01-15T04:39:47;22.65;;;8.88;;
22336;SDS011;14992;50.844;4.418;2024-01-15T04:42:20;9.65;;;5.78;;
22336;SDS011;14992;50.844;4.418;2024-01-15T04:44:50;16.58;;;6.38;;
22336;SDS011;14992;50.844;4.418;2024-01-15T04:47:19;13.02;;;6.60;;
22336;SDS011;14992;50.844;4.418;2024-01-15T04:49:48;17.42;;;8.10;;
22336;SDS011;14992;50.844;4.418;2024-01-15T04:52:17;11.82;;;6.40;;
22336;SDS011;14992;50.844;4.418;2024-01-15T04:54:46;14.68;;;7.45;;
22336;SDS011;14992;50.844;4.418;2024-01-15T04:57:15;12.38;;;7.18;;
22336;SDS011;14992;50.844;4.418;2024-01-15T04:59:43;8.75;;;4.70;;
22336;SDS011;14992;50.844;4.418;2024-01-15T05:02:14;10.52;;;5.50;;
22336;SDS011;14992;50.844;4.418;2024-01-15T05:04:42;10.60;;;5.88;;
22336;SDS011;14992;50.844;4.418;2024-01-15T05:07:11;12.35;;;7.25;;
22336;SDS011;14992;50.844;4.418;2024-01-15T05:09:40;12.65;;;4.95;;
22336;SDS011;14992;50.844;4.418;2024-01-15T05:12:09;11.25;;;5.75;;
22336;SDS011;14992;50.844;4.418;2024-01-15T05:14:38;8.30;;;5.10;;
22336;SDS011;14992;50.844;4.418;2024-01-15T05:17:07;7.18;;;3.83;;
22336;SDS011;14992;50.844;4.418;2024-01-15T05:19:39;8.98;;;4.78;;
22336;SDS011;14992;50.844;4.418;2024-01-15T05:22:07;9.15;;;3.90;;
22336;SDS011;14992;50.844;4.418;2024-01-15T05:24:36;10.05;;;2.83;;
22336;SDS011;14992;50.844;4.418;2024-01-15T05:27:05;4.68;;;2.30;;
22336;SDS011;14992;50.844;4.418;2024-01-15T05:29:34;5.80;;;2.92;;
22336;SDS011;14992;50.844;4.418;2024-01-15T05:32:03;8.70;;;2.55;;
22336;SDS011;14992;50.844;4.418;2024-01-15T05:34:32;6.50;;;3.10;;
22336;SDS011;14992;50.844;4.418;2024-01-15T05:37:03;5.45;;;2.63;;
22336;SDS011;14992;50.844;4.418;2024-01-15T05:39:31;4.50;;;2.72;;
22336;SDS011;14992;50.844;4.418;2024-01-15T05:42:00;10.35;;;2.22;;
22336;SDS011;14992;50.844;4.418;2024-01-15T05:44:29;4.15;;;2.20;;
22336;SDS011;14992;50.844;4.418;2024-01-15T05:46:58;2.65;;;2.38;;
22336;SDS011;14992;50.844;4.418;2024-01-15T05:49:27;3.35;;;2.13;;
22336;SDS011;14992;50.844;4.418;2024-01-15T05:51:56;4.10;;;1.90;;
22336;SDS011;14992;50.844;4.418;2024-01-15T05:54:26;3.50;;;2.03;;
22336;SDS011;14992;50.844;4.418;2024-01-15T05:56:55;5.20;;;1.88;;
22336;SDS011;14992;50.844;4.418;2024-01-15T05:59:24;3.88;;;1.90;;
22336;SDS011;14992;50.844;4.418;2024-01-15T06:01:53;2.55;;;2.30;;
22336;SDS011;14992;50.844;4.418;2024-01-15T06:04:22;3.83;;;1.85;;
22336;SDS011;14992;50.844;4.418;2024-01-15T06:06:50;3.53;;;1.75;;
22336;SDS011;14992;50.844;4.418;2024-01-15T06:09:19;3.33;;;1.30;;
22336;SDS011;14992;50.844;4.418;2024-01-15T06:11:50;4.40;;;1.63;;
22336;SDS011;14992;50.844;4.418;2024-01-15T06:14:18;1.95;;;1.35;;
22336;SDS011;14992;50.844;4.418;2024-01-15T06:16:47;2.50;;;0.95;;
22336;SDS011;14992;50.844;4.418;2024-01-15T06:19:16;3.10;;;1.63;;
22336;SDS011;14992;50.844;4.418;2024-01-15T06:21:45;5.68;;;1.38;;
22336;SDS011;14992;50.844;4.418;2024-01-15T06:24:14;7.72;;;1.13;;
22336;SDS011;14992;50.844;4.418;2024-01-15T06:26:46;4.85;;;1.92;;
22336;SDS011;14992;50.844;4.418;2024-01-15T06:29:16;1.52;;;1.40;;
22336;SDS011;14992;50.844;4.418;2024-01-15T06:31:45;2.35;;;1.23;;
22336;SDS011;14992;50.844;4.418;2024-01-15T06:34:14;2.45;;;1.40;;
22336;SDS011;14992;50.844;4.418;2024-01-15T06:36:43;5.50;;;2.22;;
22336;SDS011;14992;50.844;4.418;2024-01-15T06:39:12;2.00;;;1.45;;
22336;SDS011;14992;50.844;4.418;2024-01-15T06:41:41;2.78;;;1.58;;
22336;SDS011;14992;50.844;4.418;2024-01-15T06:44:11;2.55;;;1.40;;
22336;SDS011;14992;50.844;4.418;2024-01-15T06:46:43;2.03;;;1.70;;
22336;SDS011;14992;50.844;4.418;2024-01-15T06:49:11;1.80;;;1.50;;
22336;SDS011;14992;50.844;4.418;2024-01-15T06:51:40;2.22;;;1.10;;
22336;SDS011;14992;50.844;4.418;2024-01-15T06:54:11;3.78;;;1.63;;
22336;SDS011;14992;50.844;4.418;2024-01-15T06:56:40;3.83;;;1.98;;
22336;SDS011;14992;50.844;4.418;2024-01-15T06:59:09;4.10;;;2.00;;
22336;SDS011;14992;50.844;4.418;2024-01-15T07:01:38;2.72;;;2.25;;
22336;SDS011;14992;50.844;4.418;2024-01-15T07:04:10;3.40;;;2.63;;
22336;SDS011;14992;50.844;4.418;2024-01-15T07:06:38;8.88;;;2.97;;
22336;SDS011;14992;50.844;4.418;2024-01-15T07:09:07;12.80;;;3.30;;
22336;SDS011;14992;50.844;4.418;2024-01-15T07:11:38;6.60;;;3.08;;
22336;SDS011;14992;50.844;4.418;2024-01-15T07:14:06;4.57;;;2.47;;
22336;SDS011;14992;50.844;4.418;2024-01-15T07:16:35;3.10;;;2.72;;
22336;SDS011;14992;50.844;4.418;2024-01-15T07:19:05;4.40;;;2.58;;
22336;SDS011;14992;50.844;4.418;2024-01-15T07:21:36;4.80;;;2.83;;
22336;SDS011;14992;50.844;4.418;2024-01-15T07:24:06;6.45;;;2.80;;
22336;SDS011;14992;50.844;4.418;2024-01-15T07:26:35;4.80;;;3.20;;
22336;SDS011;14992;50.844;4.418;2024-01-15T07:29:04;5.13;;;2.80;;
22336;SDS011;14992;50.844;4.418;2024-01-15T07:31:33;3.53;;;2.55;;
22336;SDS011;14992;50.844;4.418;2024-01-15T07:34:02;1.98;;;1.75;;
22336;SDS011;14992;50.844;4.418;2024-01-15T07:36:31;5.20;;;3.33;;
22336;SDS011;14992;50.844;4.418;2024-01-15T07:39:01;5.38;;;3.20;;
22336;SDS011;14992;50.844;4.418;2024-01-15T07:41:31;4.32;;;3.10;;
22336;SDS011;14992;50.844;4.418;2024-01-15T07:44:00;4.65;;;2.95;;
22336;SDS011;14992;50.844;4.418;2024-01-15T07:46:30;7.82;;;3.47;;
22336;SDS011;14992;50.844;4.418;2024-01-15T07:48:59;5.07;;;2.88;;
22336;SDS011;14992;50.844;4.418;2024-01-15T07:51:28;7.68;;;4.38;;
22336;SDS011;14992;50.844;4.418;2024-01-15T07:53:57;7.47;;;4.55;;
22336;SDS011;14992;50.844;4.418;2024-01-15T07:56:27;8.18;;;4.13;;
22336;SDS011;14992;50.844;4.418;2024-01-15T07:58:56;4.07;;;3.42;;
22336;SDS011;14992;50.844;4.418;2024-01-15T08:01:24;6.53;;;3.85;;
22336;SDS011;14992;50.844;4.418;2024-01-15T08:03:53;5.10;;;3.05;;
22336;SDS011;14992;50.844;4.418;2024-01-15T08:06:22;7.80;;;4.32;;
22336;SDS011;14992;50.844;4.418;2024-01-15T08:08:51;5.50;;;4.80;;
22336;SDS011;14992;50.844;4.418;2024-01-15T08:11:20;10.40;;;3.72;;
22336;SDS011;14992;50.844;4.418;2024-01-15T08:13:50;9.85;;;3.90;;
22336;SDS011;14992;50.844;4.418;2024-01-15T08:16:19;8.57;;;4.53;;
22336;SDS011;14992;50.844;4.418;2024-01-15T08:18:48;4.65;;;3.28;;
22336;SDS011;14992;50.844;4.418;2024-01-15T08:21:17;8.02;;;3.83;;
22336;SDS011;14992;50.844;4.418;2024-01-15T08:23:46;7.13;;;3.47;;
22336;SDS011;14992;50.844;4.418;2024-01-15T08:26:15;7.50;;;3.47;;
22336;SDS011;14992;50.844;4.418;2024-01-15T08:28:44;5.75;;;3.42;;
22336;SDS011;14992;50.844;4.418;2024-01-15T08:31:14;10.18;;;4.18;;
22336;SDS011;14992;50.844;4.418;2024-01-15T08:33:44;5.40;;;3.83;;
22336;SDS011;14992;50.844;4.418;2024-01-15T08:36:13;7.75;;;3.40;;
22336;SDS011;14992;50.844;4.418;2024-01-15T08:38:42;6.40;;;3.35;;
22336;SDS011;14992;50.844;4.418;2024-01-15T08:41:11;7.57;;;3.78;;
22336;SDS011;14992;50.844;4.418;2024-01-15T08:43:40;3.50;;;2.40;;
22336;SDS011;14992;50.844;4.418;2024-01-15T08:46:09;7.63;;;2.30;;
22336;SDS011;14992;50.844;4.418;2024-01-15T08:48:39;7.05;;;1.95;;
22336;SDS011;14992;50.844;4.418;2024-01-15T08:51:09;3.88;;;1.80;;
22336;SDS011;14992;50.844;4.418;2024-01-15T08:53:38;7.35;;;2.67;;
22336;SDS011;14992;50.844;4.418;2024-01-15T08:56:06;5.88;;;2.08;;
22336;SDS011;14992;50.844;4.418;2024-01-15T08:58:35;4.78;;;1.65;;
22336;SDS011;14992;50.844;4.418;2024-01-15T09:01:04;6.30;;;2.33;;
22336;SDS011;14992;50.844;4.418;2024-01-15T09:03:33;3.95;;;1.65;;
22336;SDS011;14992;50.844;4.418;2024-01-15T09:06:05;3.20;;;1.73;;
22336;SDS011;14992;50.844;4.418;2024-01-15T09:08:34;3.38;;;1.27;;
22336;SDS011;14992;50.844;4.418;2024-01-15T09:11:03;4.45;;;1.35;;
22336;SDS011;14992;50.844;4.418;2024-01-15T09:13:32;2.55;;;0.90;;
22336;SDS011;14992;50.844;4.418;2024-01-15T09:16:00;7.60;;;1.83;;
22336;SDS011;14992;50.844;4.418;2024-01-15T09:18:30;4.78;;;1.45;;
22336;SDS011;14992;50.844;4.418;2024-01-15T09:20:59;4.13;;;0.70;;
22336;SDS011;14992;50.844;4.418;2024-01-15T09:23:29;5.47;;;1.50;;
22336;SDS011;14992;50.844;4.418;2024-01-15T09:25:58;4.75;;;1.15;;
22336;SDS011;14992;50.844;4.418;2024-01-15T09:28:27;4.38;;;1.73;;
22336;SDS011;14992;50.844;4.418;2024-01-15T09:30:56;2.60;;;1.20;;
22336;SDS011;14992;50.844;4.418;2024-01-15T09:33:25;3.75;;;1.13;;
22336;SDS011;14992;50.844;4.418;2024-01-15T09:35:54;3.08;;;0.90;;
22336;SDS011;14992;50.844;4.418;2024-01-15T09:38:23;5.60;;;1.92;;
22336;SDS011;14992;50.844;4.418;2024-01-15T09:40:53;2.60;;;1.25;;
22336;SDS011;14992;50.844;4.418;2024-01-15T09:43:22;3.92;;;1.27;;
22336;SDS011;14992;50.844;4.418;2024-01-15T09:45:51;3.90;;;2.33;;
22336;SDS011;14992;50.844;4.418;2024-01-15T09:48:20;2.08;;;1.20;;
22336;SDS011;14992;50.844;4.418;2024-01-15T09:50:50;6.43;;;1.52;;
22336;SDS011;14992;50.844;4.418;2024-01-15T09:53:20;3.75;;;1.60;;
22336;SDS011;14992;50.844;4.418;2024-01-15T09:55:49;13.05;;;1.67;;
22336;SDS011;14992;50.844;4.418;2024-01-15T09:58:20;5.53;;;1.00;;
22336;SDS011;14992;50.844;4.418;2024-01-15T10:00:49;4.55;;;1.48;;
22336;SDS011;14992;50.844;4.418;2024-01-15T10:03:19;3.55;;;1.33;;
22336;SDS011;14992;50.844;4.418;2024-01-15T10:05:49;2.05;;;1.05;;
22336;SDS011;14992;50.844;4.418;2024-01-15T10:08:18;2.05;;;1.38;;
22336;SDS011;14992;50.844;4.418;2024-01-15T10:10:47;3.63;;;1.48;;
22336;SDS011;14992;50.844;4.418;2024-01-15T10:13:16;4.28;;;1.20;;
22336;SDS011;14992;50.844;4.418;2024-01-15T10:15:48;5.35;;;1.08;;
22336;SDS011;14992;50.844;4.418;2024-01-15T10:18:17;1.92;;;1.20;;
22336;SDS011;14992;50.844;4.418;2024-01-15T10:20:46;3.25;;;1.30;;
22336;SDS011;14992;50.844;4.418;2024-01-15T10:23:15;8.60;;;1.73;;
22336;SDS011;14992;50.844;4.418;2024-01-15T10:25:44;4.30;;;1.60;;
22336;SDS011;14992;50.844;4.418;2024-01-15T10:28:13;6.38;;;1.30;;
22336;SDS011;14992;50.844;4.418;2024-01-15T10:30:42;2.03;;;1.20;;
22336;SDS011;14992;50.844;4.418;2024-01-15T10:33:12;5.38;;;1.17;;
22336;SDS011;14992;50.844;4.418;2024-01-15T10:35:42;7.82;;;1.70;;
22336;SDS011;14992;50.844;4.418;2024-01-15T10:38:11;7.97;;;1.50;;
22336;SDS011;14992;50.844;4.418;2024-01-15T10:40:40;2.42;;;1.15;;
22336;SDS011;14992;50.844;4.418;2024-01-15T10:43:09;4.72;;;1.48;;
22336;SDS011;14992;50.844;4.418;2024-01-15T10:45:38;5.75;;;1.95;;
22336;SDS011;14992;50.844;4.418;2024-01-15T10:48:07;3.65;;;1.45;;
22336;SDS011;14992;50.844;4.418;2024-01-15T10:50:38;2.50;;;0.90;;
22336;SDS011;14992;50.844;4.418;2024-01-15T10:53:07;6.65;;;1.30;;
22336;SDS011;14992;50.844;4.418;2024-01-15T10:55:37;8.05;;;1.17;;
22336;SDS011;14992;50.844;4.418;2024-01-15T10:58:06;1.73;;;1.15;;
22336;SDS011;14992;50.844;4.418;2024-01-15T11:00:35;9.38;;;0.98;;
22336;SDS011;14992;50.844;4.418;2024-01-15T11:03:06;3.05;;;1.13;;
22336;SDS011;14992;50.844;4.418;2024-01-15T11:05:37;2.35;;;1.00;;
22336;SDS011;14992;50.844;4.418;2024-01-15T11:08:06;1.65;;;0.60;;
22336;SDS011;14992;50.844;4.418;2024-01-15T11:10:39;1.65;;;1.02;;
22336;SDS011;14992;50.844;4.418;2024-01-15T11:13:14;4.47;;;1.27;;
22336;SDS011;14992;50.844;4.418;2024-01-15T11:15:57;2.38;;;1.27;;
22336;SDS011;14992;50.844;4.418;2024-01-15T11:18:28;3.92;;;1.25;;
22336;SDS011;14992;50.844;4.418;2024-01-15T11:23:53;4.20;;;1.65;;
22336;SDS011;14992;50.844;4.418;2024-01-15T11:26:31;3.38;;;1.00;;
22336;SDS011;14992;50.844;4.418;2024-01-15T11:29:02;5.22;;;1.08;;
22336;SDS011;14992;50.844;4.418;2024-01-15T11:37:28;2.63;;;1.05;;
22336;SDS011;14992;50.844;4.418;2024-01-15T11:40:17;5.05;;;0.98;;
22336;SDS011;14992;50.844;4.418;2024-01-15T11:42:47;1.98;;;1.00;;
22336;SDS011;14992;50.844;4.418;2024-01-15T11:45:20;2.88;;;1.65;;
22336;SDS011;14992;50.844;4.418;2024-01-15T11:47:57;3.17;;;1.63;;
22336;SDS011;14992;50.844;4.418;2024-01-15T11:50:41;1.35;;;1.02;;
22336;SDS011;14992;50.844;4.418;2024-01-15T11:53:15;1.20;;;1.00;;
22336;SDS011;14992;50.844;4.418;2024-01-15T11:55:46;7.43;;;1.15;;
22336;SDS011;14992;50.844;4.418;2024-01-15T11:58:15;0.52;;;0.52;;
22336;SDS011;14992;50.844;4.418;2024-01-15T12:00:45;1.20;;;0.68;;
22336;SDS011;14992;50.844;4.418;2024-01-15T12:03:16;8.05;;;1.08;;
22336;SDS011;14992;50.844;4.418;2024-01-15T12:05:46;1.85;;;0.80;;
22336;SDS011;14992;50.844;4.418;2024-01-15T12:08:20;1.17;;;0.80;;
22336;SDS011;14992;50.844;4.418;2024-01-15T12:10:49;1.45;;;0.98;;
22336;SDS011;14992;50.844;4.418;2024-01-15T12:13:18;6.28;;;1.20;;
22336;SDS011;14992;50.844;4.418;2024-01-15T12:15:48;1.40;;;0.90;;
22336;SDS011;14992;50.844;4.418;2024-01-15T12:18:17;1.80;;;0.80;;
22336;SDS011;14992;50.844;4.418;2024-01-15T12:20:47;2.70;;;1.08;;
22336;SDS011;14992;50.844;4.418;2024-01-15T12:23:18;3.10;;;1.35;;
22336;SDS011;14992;50.844;4.418;2024-01-15T12:25:47;1.75;;;1.08;;
22336;SDS011;14992;50.844;4.418;2024-01-15T12:28:17;6.43;;;1.17;;
22336;SDS011;14992;50.844;4.418;2024-01-15T12:30:46;3.60;;;1.52;;
22336;SDS011;14992;50.844;4.418;2024-01-15T12:33:18;2.83;;;1.00;;
22336;SDS011;14992;50.844;4.418;2024-01-15T12:35:48;2.25;;;0.90;;
22336;SDS011;14992;50.844;4.418;2024-01-15T12:38:19;3.75;;;1.05;;
22336;SDS011;14992;50.844;4.418;2024-01-15T12:40:50;3.08;;;1.33;;
22336;SDS011;14992;50.844;4.418;2024-01-15T12:43:19;3.92;;;0.70;;
22336;SDS011;14992;50.844;4.418;2024-01-15T12:45:48;1.80;;;0.75;;
22336;SDS011;14992;50.844;4.418;2024-01-15T12:48:18;5.80;;;0.70;;
22336;SDS011;14992;50.844;4.418;2024-01-15T12:50:48;3.67;;;1.20;;
22336;SDS011;14992;50.844;4.418;2024-01-15T12:53:21;1.45;;;0.90;;
22336;SDS011;14992;50.844;4.418;2024-01-15T12:55:50;1.70;;;1.05;;
22336;SDS011;14992;50.844;4.418;2024-01-15T12:58:19;1.92;;;1.08;;
22336;SDS011;14992;50.844;4.418;2024-01-15T13:00:48;1.58;;;0.73;;
22336;SDS011;14992;50.844;4.418;2024-01-15T13:03:17;4.65;;;1.00;;
22336;SDS011;14992;50.844;4.418;2024-01-15T13:05:46;3.75;;;0.93;;
22336;SDS011;14992;50.844;4.418;2024-01-15T13:08:16;2.90;;;0.80;;
22336;SDS011;14992;50.844;4.418;2024-01-15T13:10:46;0.93;;;0.70;;
22336;SDS011;14992;50.844;4.418;2024-01-15T13:13:15;3.22;;;0.88;;
22336;SDS011;14992;50.844;4.418;2024-01-15T13:15:44;5.20;;;2.00;;
22336;SDS011;14992;50.844;4.418;2024-01-15T13:18:13;0.98;;;0.88;;
22336;SDS011;14992;50.844;4.418;2024-01-15T13:20:42;5.13;;;1.42;;
22336;SDS011;14992;50.844;4.418;2024-01-15T13:23:12;4.78;;;0.80;;
22336;SDS011;14992;50.844;4.418;2024-01-15T13:25:41;2.22;;;0.65;;
22336;SDS011;14992;50.844;4.418;2024-01-15T13:28:11;1.90;;;0.60;;
22336;SDS011;14992;50.844;4.418;2024-01-15T13:30:40;6.70;;;1.55;;
22336;SDS011;14992;50.844;4.418;2024-01-15T13:33:09;2.92;;;0.93;;
22336;SDS011;14992;50.844;4.418;2024-01-15T13:35:38;3.50;;;0.85;;
22336;SDS011;14992;50.844;4.418;2024-01-15T13:38:07;4.05;;;1.30;;
22336;SDS011;14992;50.844;4.418;2024-01-15T13:40:36;2.58;;;1.50;;
22336;SDS011;14992;50.844;4.418;2024-01-15T13:43:05;4.65;;;1.40;;
22336;SDS011;14992;50.844;4.418;2024-01-15T13:45:36;2.08;;;1.38;;
22336;SDS011;14992;50.844;4.418;2024-01-15T13:48:06;2.25;;;1.10;;
22336;SDS011;14992;50.844;4.418;2024-01-15T13:50:35;2.05;;;1.30;;
22336;SDS011;14992;50.844;4.418;2024-01-15T13:53:04;3.00;;;1.42;;
22336;SDS011;14992;50.844;4.418;2024-01-15T13:55:34;4.75;;;1.58;;
22336;SDS011;14992;50.844;4.418;2024-01-15T13:58:03;6.70;;;1.42;;
22336;SDS011;14992;50.844;4.418;2024-01-15T14:00:32;3.50;;;1.20;;
22336;SDS011;14992;50.844;4.418;2024-01-15T14:03:03;2.90;;;0.93;;
22336;SDS011;14992;50.844;4.418;2024-01-15T14:05:32;1.40;;;0.73;;
22336;SDS011;14992;50.844;4.418;2024-01-15T14:08:01;1.63;;;0.60;;
22336;SDS011;14992;50.844;4.418;2024-01-15T14:10:30;1.20;;;0.90;;
22336;SDS011;14992;50.844;4.418;2024-01-15T14:12:59;1.38;;;0.88;;
22336;SDS011;14992;50.844;4.418;2024-01-15T14:15:29;4.18;;;0.80;;
22336;SDS011;14992;50.844;4.418;2024-01-15T14:17:57;3.65;;;1.30;;
22336;SDS011;14992;50.844;4.418;2024-01-15T14:20:29;6.40;;;2.30;;
22336;SDS011;14992;50.844;4.418;2024-01-15T14:22:58;3.58;;;1.30;;
22336;SDS011;14992;50.844;4.418;2024-01-15T14:25:27;1.98;;;1.55;;
22336;SDS011;14992;50.844;4.418;2024-01-15T14:27:56;3.15;;;1.50;;
22336;SDS011;14992;50.844;4.418;2024-01-15T14:30:25;1.48;;;0.70;;
22336;SDS011;14992;50.844;4.418;2024-01-15T14:32:54;4.05;;;1.55;;
22336;SDS011;14992;50.844;4.418;2024-01-15T14:35:23;1.17;;;1.08;;
22336;SDS011;14992;50.844;4.418;2024-01-15T14:37:53;3.55;;;1.02;;
22336;SDS011;14992;50.844;4.418;2024-01-15T14:40:24;1.00;;;0.90;;
22336;SDS011;14992;50.844;4.418;2024-01-15T14:42:53;6.00;;;0.90;;
22336;SDS011;14992;50.844;4.418;2024-01-15T14:45:22;1.95;;;0.80;;
22336;SDS011;14992;50.844;4.418;2024-01-15T14:47:54;6.40;;;1.88;;
22336;SDS011;14992;50.844;4.418;2024-01-15T14:50:24;1.13;;;0.57;;
22336;SDS011;14992;50.844;4.418;2024-01-15T14:52:54;3.25;;;0.82;;
22336;SDS011;14992;50.844;4.418;2024-01-15T14:55:23;5.35;;;1.65;;
22336;SDS011;14992;50.844;4.418;2024-01-15T14:57:52;4.95;;;1.35;;
22336;SDS011;14992;50.844;4.418;2024-01-15T15:00:21;8.02;;;1.20;;
22336;SDS011;14992;50.844;4.418;2024-01-15T15:02:50;4.13;;;1.60;;
22336;SDS011;14992;50.844;4.418;2024-01-15T15:05:19;2.60;;;0.93;;
22336;SDS011;14992;50.844;4.418;2024-01-15T15:07:48;5.10;;;1.85;;
22336;SDS011;14992;50.844;4.418;2024-01-15T15:10:18;2.95;;;1.13;;
22336;SDS011;14992;50.844;4.418;2024-01-15T15:12:47;1.95;;;0.60;;
22336;SDS011;14992;50.844;4.418;2024-01-15T15:15:16;7.97;;;1.30;;
22336;SDS011;14992;50.844;4.418;2024-01-15T15:17:48;1.23;;;0.90;;
22336;SDS011;14992;50.844;4.418;2024-01-15T15:20:17;4.15;;;1.67;;
22336;SDS011;14992;50.844;4.418;2024-01-15T15:22:47;1.13;;;1.02;;
22336;SDS011;14992;50.844;4.418;2024-01-15T15:25:16;3.90;;;1.20;;
22336;SDS011;14992;50.844;4.418;2024-01-15T15:27:47;3.50;;;1.10;;
22336;SDS011;14992;50.844;4.418;2024-01-15T15:30:16;4.50;;;1.75;;
22336;SDS011;14992;50.844;4.418;2024-01-15T15:32:45;3.63;;;1.27;;
22336;SDS011;14992;50.844;4.418;2024-01-15T15:35:14;5.05;;;1.00;;
22336;SDS011;14992;50.844;4.418;2024-01-15T15:37:43;2.63;;;0.90;;
22336;SDS011;14992;50.844;4.418;2024-01-15T15:40:12;1.38;;;1.17;;
22336;SDS011;14992;50.844;4.418;2024-01-15T15:42:42;3.20;;;1.90;;